Roscommon, Michigan
Current Conditions -  °F | °C
As of 8:24 PM on Friday 28 Nov 2014 (Local Time) from KHTL Reporting Station
Light Snow Light Snow  
Wind Chill: 12°   Ceiling: 4500
Heat Index: 22°   Visibility: 4mi
Dew Point: 18°   Wind: 9mph
Humidity: 85%   Direction: 170°S
Pressure: 30.04"   Gusts: NA
Location:  44.5°N, 84.59°W
Report Text: KHTL 290124Z AUTO 17008KT 4SM -SN BR SCT012 SCT026 OVC045 M06/M08 A3004 RMK AO2 P0000 T10561078
Loading
Personal Weather Stations






























Interactive Weather Map New forecast layout! Learn more

10-Day Weather Forecast

Advertisements
Track Severe Weather on mobile